»·PEaware :: 7T-VNJ KSBD-KBFL

7T-VNJ :: KSBD-KBFL

FLIGHT INFORMATION

Flight Status: Arrived
Operator: Privately registered:
Algeria
More flights under this callsign
Pilot: Zakaria R. (17375)
Aircraft: CESSNA 172 SKYHAWK
(C172)
More flights by this aircraft type
Origin: KSBD San Bernardino Intl
United States
Destination: KBFL Meadows
United States
More flights between these airports :: More routes between these airports
Route: +++PDZ V197 ++ PMD V197 ARVIN
File this flight plan on PilotEdge
Remarks: Sample flight plan
Altitude:
(Current/Filed)
12,000ft
Speed:
(Current/Filed)
120kts
Departed: 06-Jan-18 09:27 AM
Arrived: 06-Jan-18 10:58 AM
Distance/Time
Traveled:
121nm/1:31
Distance/Time
To Go:
Arrived

Flight Plot

Page will automatically refresh every two minutes.

Flight plan parsing failed; only flown route is shown


Map Options




Map Legend


Flown Route
Filed Route
Departure Airport
Arrival Airport
Navaid (VOR, NDB)
Fix

Horizontal Profiles

Position Reports

Time Latitude Longitude Heading Altitude Ground
Speed
06-Jan-18 09:06 34.098154 -117.243814 0 1095ft 0kts
06-Jan-18 09:07 34.098154 -117.243814 0 1095ft 0kts
06-Jan-18 09:08 34.098154 -117.243814 0 1095ft 0kts
06-Jan-18 09:09 34.098154 -117.243814 0 1095ft 0kts
06-Jan-18 09:10 34.098154 -117.243814 0 1095ft 0kts
06-Jan-18 09:11 34.098154 -117.243814 0 1095ft 0kts
06-Jan-18 09:12 34.098154 -117.243814 0 1095ft 0kts
06-Jan-18 09:13 34.098154 -117.243814 0 1095ft 0kts
06-Jan-18 09:14 34.098154 -117.243814 0 1095ft 0kts
06-Jan-18 09:15 34.098154 -117.243814 0 1095ft 0kts
06-Jan-18 09:16 34.098154 -117.243814 0 1095ft 0kts
06-Jan-18 09:17 34.098154 -117.243814 0 1095ft 0kts
06-Jan-18 09:18 34.098154 -117.243814 0 1095ft 0kts
06-Jan-18 09:19 34.098154 -117.243814 0 1095ft 0kts
06-Jan-18 09:20 34.098154 -117.243814 0 1095ft 0kts
06-Jan-18 09:21 34.098154 -117.243814 0 1095ft 0kts
06-Jan-18 09:22 34.098154 -117.243814 0 1095ft 0kts
06-Jan-18 09:23 34.098154 -117.243814 0 1095ft 0kts
06-Jan-18 09:24 34.098154 -117.243814 0 1095ft 0kts
06-Jan-18 09:25 34.098154 -117.243814 0 1095ft 0kts
06-Jan-18 09:26 34.096761 -117.242152 161 1099ft 17kts
06-Jan-18 09:27 34.096067 -117.238614 73 1109ft 10kts
06-Jan-18 09:28 34.097128 -117.234983 69 1119ft 15kts
06-Jan-18 09:29 34.098854 -117.229131 70 1134ft 20kts
06-Jan-18 09:30 34.100805 -117.222516 68 1150ft 21kts
06-Jan-18 09:31 34.101008 -117.219817 158 1159ft 0kts
06-Jan-18 09:32 34.101008 -117.219817 158 1159ft 0kts
06-Jan-18 09:33 34.095192 -117.234482 248 1402ft 85kts
06-Jan-18 09:34 34.085721 -117.262234 246 2166ft 92kts
06-Jan-18 09:35 34.070111 -117.285538 220 3035ft 92kts
06-Jan-18 09:36 34.048053 -117.298937 211 3881ft 89kts
06-Jan-18 09:37 34.027134 -117.314124 213 4672ft 87kts
06-Jan-18 09:38 34.023025 -117.338301 280 5421ft 75kts
06-Jan-18 09:39 34.027861 -117.360777 313 6144ft 67kts
06-Jan-18 09:40 34.040552 -117.377857 314 6769ft 71kts
06-Jan-18 09:41 34.038813 -117.401994 260 7383ft 79kts
06-Jan-18 09:42 34.031934 -117.426793 260 7980ft 76kts
06-Jan-18 09:43 34.031644 -117.450066 280 8570ft 66kts
06-Jan-18 09:44 34.033920 -117.471902 281 8991ft 75kts
06-Jan-18 09:45 34.037778 -117.500333 281 8989ft 92kts
06-Jan-18 09:46 34.042214 -117.531271 281 8986ft 94kts
06-Jan-18 09:47 34.046847 -117.562607 281 8984ft 95kts
06-Jan-18 09:48 34.051365 -117.592237 281 8982ft 95kts
06-Jan-18 09:49 34.056234 -117.623500 281 8982ft 95kts
06-Jan-18 09:50 34.061089 -117.654597 281 8988ft 95kts
06-Jan-18 09:51 34.065852 -117.685254 281 8992ft 96kts
06-Jan-18 09:52 34.070784 -117.716883 281 8995ft 96kts
06-Jan-18 09:53 34.075723 -117.748505 281 8999ft 96kts
06-Jan-18 09:54 34.080674 -117.780159 281 9003ft 96kts
06-Jan-18 09:55 34.092072 -117.808168 322 9006ft 102kts
06-Jan-18 09:56 34.120549 -117.814704 358 9007ft 114kts
06-Jan-18 09:57 34.150693 -117.817934 341 9008ft 108kts
06-Jan-18 09:58 34.180345 -117.824092 340 9094ft 104kts
06-Jan-18 09:59 34.204542 -117.829083 334 9783ft 76kts
06-Jan-18 10:00 34.227266 -117.834321 337 10012ft 101kts
06-Jan-18 10:01 34.257155 -117.840748 338 10028ft 112kts
06-Jan-18 10:02 34.288334 -117.847323 339 10027ft 114kts
06-Jan-18 10:03 34.319758 -117.853941 339 10027ft 115kts
06-Jan-18 10:04 34.351256 -117.860583 339 10026ft 115kts
06-Jan-18 10:05 34.382678 -117.867218 339 10026ft 115kts
06-Jan-18 10:06 34.414232 -117.873892 338 10024ft 115kts
06-Jan-18 10:07 34.443938 -117.885003 322 10021ft 109kts
06-Jan-18 10:08 34.469441 -117.904371 315 10017ft 107kts
06-Jan-18 10:09 34.493052 -117.926051 312 10014ft 106kts
06-Jan-18 10:10 34.516218 -117.948643 311 10012ft 106kts
06-Jan-18 10:11 34.539075 -117.971378 311 10010ft 106kts
06-Jan-18 10:12 34.562064 -117.994401 311 10000ft 107kts
06-Jan-18 10:13 34.584904 -118.017339 310 9998ft 107kts
06-Jan-18 10:14 34.607903 -118.040468 310 9998ft 107kts
06-Jan-18 10:15 34.630735 -118.063574 307 9998ft 106kts
06-Jan-18 10:16 34.650741 -118.089279 304 9999ft 104kts
06-Jan-18 10:17 34.670674 -118.115162 304 9989ft 105kts
06-Jan-18 10:18 34.690723 -118.141217 304 9987ft 105kts
06-Jan-18 10:19 34.710399 -118.166745 303 9986ft 101kts
06-Jan-18 10:20 34.729572 -118.191704 303 9985ft 101kts
06-Jan-18 10:21 34.748665 -118.216584 302 9984ft 102kts
06-Jan-18 10:22 34.768276 -118.242154 302 9983ft 102kts
06-Jan-18 10:23 34.787789 -118.267615 302 9982ft 103kts
06-Jan-18 10:24 34.807506 -118.293358 301 9981ft 104kts
06-Jan-18 10:25 34.827293 -118.319210 301 9980ft 104kts
06-Jan-18 10:26 34.847132 -118.345147 301 9985ft 104kts
06-Jan-18 10:27 34.866843 -118.370939 302 9993ft 103kts
06-Jan-18 10:28 34.886091 -118.396729 297 10003ft 101kts
06-Jan-18 10:29 34.905294 -118.421642 302 10015ft 100kts
06-Jan-18 10:30 34.924155 -118.446136 301 10026ft 97kts
06-Jan-18 10:31 34.942449 -118.470073 301 10034ft 95kts
06-Jan-18 10:32 34.960203 -118.493370 301 10040ft 93kts
06-Jan-18 10:33 34.977575 -118.516198 301 10045ft 90kts
06-Jan-18 10:34 34.994497 -118.538455 301 10048ft 88kts
06-Jan-18 10:35 35.011008 -118.560188 300 10047ft 86kts
06-Jan-18 10:36 35.026661 -118.579542 304 9520ft 87kts
06-Jan-18 10:37 35.045793 -118.601079 306 9056ft 93kts
06-Jan-18 10:38 35.064047 -118.621598 306 9047ft 87kts
06-Jan-18 10:39 35.081751 -118.641622 306 9044ft 86kts
06-Jan-18 10:40 35.099540 -118.661610 306 9048ft 87kts
06-Jan-18 10:41 35.117539 -118.681840 307 9045ft 88kts
06-Jan-18 10:42 35.127611 -118.707106 281 9040ft 84kts
06-Jan-18 10:43 35.131948 -118.735373 281 9035ft 85kts
06-Jan-18 10:44 35.136055 -118.763865 281 9030ft 85kts
06-Jan-18 10:45 35.139294 -118.787766 281 9025ft 85kts
06-Jan-18 10:46 35.143575 -118.821407 281 9020ft 86kts
06-Jan-18 10:47 35.146694 -118.846143 282 8800ft 92kts
06-Jan-18 10:48 35.152950 -118.882103 317 8002ft 99kts
06-Jan-18 10:49 35.182554 -118.872685 12 7311ft 117kts
06-Jan-18 10:50 35.207636 -118.860452 12 6736ft 115kts
06-Jan-18 10:51 35.237594 -118.847043 12 6046ft 114kts
06-Jan-18 10:52 35.267738 -118.835388 356 5352ft 112kts
06-Jan-18 10:53 35.283711 -118.870761 291 4798ft 108kts
06-Jan-18 10:54 35.291325 -118.899403 298 4219ft 104kts
06-Jan-18 10:55 35.314190 -118.916055 326 3681ft 89kts
06-Jan-18 10:56 35.332132 -118.934264 319 3228ft 80kts
06-Jan-18 10:57 35.348088 -118.952852 317 2803ft 78kts
06-Jan-18 10:58 35.363829 -118.971714 316 2377ft 80kts
06-Jan-18 10:59 35.379882 -118.991048 315 1941ft 82kts
06-Jan-18 11:00 35.396278 -119.010832 315 1495ft 83kts
06-Jan-18 11:01 35.411931 -119.029713 315 1061ft 67kts
06-Jan-18 11:02 35.424612 -119.045131 314 641ft 63kts
06-Jan-18 11:03 35.436380 -119.059367 312 490ft 41kts
06-Jan-18 11:04 35.438183 -119.060007 66 495ft 0kts
06-Jan-18 11:05 35.438232 -119.059411 102 497ft 12kts
06-Jan-18 11:06 35.436776 -119.054864 49 500ft 10kts

Navigation Log

Ident Type
Flight plan parsing failed, navigation log unavailable